createdAt,value
2017-07-01T00:01:40.820Z,28.90
2017-07-01T00:04:09.348Z,28.90
2017-07-01T00:06:37.500Z,28.90
2017-07-01T00:09:05.615Z,28.90
2017-07-01T00:11:33.727Z,28.90
2017-07-01T00:14:01.845Z,28.80
2017-07-01T00:16:29.967Z,28.90
2017-07-01T00:18:58.080Z,28.80
2017-07-01T00:21:26.764Z,28.80
2017-07-01T00:23:54.880Z,28.80
2017-07-01T00:26:22.985Z,28.80
2017-07-01T00:28:51.095Z,28.80
2017-07-01T00:31:19.204Z,28.80
2017-07-01T00:33:47.316Z,28.80
2017-07-01T00:36:15.444Z,28.80
2017-07-01T00:38:43.651Z,28.80
2017-07-01T00:41:11.765Z,28.80
2017-07-01T00:43:39.876Z,28.80
2017-07-01T00:46:07.992Z,28.80
2017-07-01T00:48:36.091Z,28.80
2017-07-01T00:51:04.320Z,28.80
2017-07-01T00:53:32.437Z,28.80
2017-07-01T00:56:00.541Z,28.80
2017-07-01T00:58:28.675Z,28.80
2017-07-01T01:00:56.774Z,28.80
2017-07-01T01:03:24.887Z,28.80
2017-07-01T01:05:53.003Z,28.80
2017-07-01T01:08:21.836Z,28.70
2017-07-01T01:10:49.943Z,28.70
2017-07-01T01:13:18.163Z,28.70
2017-07-01T01:15:46.325Z,28.70
2017-07-01T01:18:14.456Z,28.70
2017-07-01T01:20:42.568Z,28.70
2017-07-01T01:23:10.688Z,28.70
2017-07-01T01:25:38.813Z,28.70
2017-07-01T01:28:06.944Z,28.70
2017-07-01T01:30:35.088Z,28.70
2017-07-01T01:33:03.211Z,28.70
2017-07-01T01:35:31.299Z,28.70
2017-07-01T01:37:59.396Z,28.70
2017-07-01T01:40:27.496Z,28.70
2017-07-01T01:42:55.611Z,28.70
2017-07-01T01:45:23.735Z,28.80
2017-07-01T01:47:51.844Z,28.80
2017-07-01T01:50:19.956Z,28.80
2017-07-01T01:52:48.052Z,28.80
2017-07-01T01:55:16.172Z,28.60
2017-07-01T01:57:44.340Z,28.80
2017-07-01T02:00:12.473Z,28.70
2017-07-01T02:02:40.595Z,28.70
2017-07-01T02:05:08.723Z,28.70
2017-07-01T02:07:36.871Z,28.70
2017-07-01T02:10:05.023Z,28.70
2017-07-01T02:12:33.179Z,28.70
2017-07-01T02:15:01.415Z,28.70
2017-07-01T02:17:31.057Z,28.60
2017-07-01T02:19:59.920Z,28.60
2017-07-01T02:22:28.120Z,28.60
2017-07-01T02:24:56.336Z,28.60
2017-07-01T02:27:24.463Z,28.60
2017-07-01T02:29:52.665Z,28.60
2017-07-01T02:32:21.543Z,28.60
2017-07-01T02:34:53.061Z,28.60
2017-07-01T02:37:21.181Z,28.60
2017-07-01T02:39:50.596Z,28.60
2017-07-01T02:42:18.764Z,28.60
2017-07-01T02:44:47.824Z,28.60
2017-07-01T02:47:25.224Z,28.60
2017-07-01T02:49:53.805Z,28.50
2017-07-01T02:52:21.971Z,28.60
2017-07-01T02:54:59.076Z,28.50
2017-07-01T02:57:27.652Z,28.50
2017-07-01T02:59:55.764Z,28.50
2017-07-01T03:02:24.184Z,28.50
2017-07-01T03:04:53.180Z,28.50
2017-07-01T03:07:21.419Z,28.50
2017-07-01T03:09:49.572Z,28.50
2017-07-01T03:12:18.300Z,28.50
2017-07-01T03:14:46.416Z,28.50
2017-07-01T03:17:15.597Z,28.50
2017-07-01T03:19:43.717Z,28.50
2017-07-01T03:22:11.951Z,28.50
2017-07-01T03:24:40.624Z,28.50
2017-07-01T03:27:09.283Z,28.50
2017-07-01T03:29:38.088Z,28.50
2017-07-01T03:32:06.276Z,28.50
2017-07-01T03:34:35.388Z,28.50
2017-07-01T03:37:04.236Z,28.50
2017-07-01T03:39:41.348Z,28.50
2017-07-01T03:42:10.812Z,28.50
2017-07-01T03:44:39.150Z,28.50
2017-07-01T03:47:07.503Z,28.40
2017-07-01T03:49:35.658Z,28.40
2017-07-01T03:52:03.810Z,28.40
2017-07-01T03:54:33.124Z,28.40
2017-07-01T03:57:01.212Z,28.40
2017-07-01T03:59:29.411Z,28.40
2017-07-01T04:01:57.532Z,28.40
2017-07-01T04:04:25.684Z,28.40
2017-07-01T04:06:53.787Z,28.40
2017-07-01T04:09:21.899Z,28.40
2017-07-01T04:11:50.075Z,28.40
2017-07-01T04:14:18.356Z,28.40
2017-07-01T04:16:46.492Z,28.40
2017-07-01T04:19:14.744Z,28.40
2017-07-01T04:21:42.879Z,28.40
2017-07-01T04:24:11.815Z,28.40
2017-07-01T04:26:39.930Z,28.40
2017-07-01T04:29:12.829Z,28.40
2017-07-01T04:31:41.233Z,28.40
2017-07-01T04:34:09.599Z,28.40
2017-07-01T04:36:37.746Z,28.40
2017-07-01T04:39:06.039Z,28.40
2017-07-01T04:41:36.176Z,28.40
2017-07-01T04:45:07.308Z,28.40
2017-07-01T04:47:35.899Z,28.40
2017-07-01T04:50:04.388Z,28.40
2017-07-01T04:52:33.140Z,28.40
2017-07-01T04:55:01.292Z,28.40
2017-07-01T04:57:29.416Z,28.30
2017-07-01T04:59:57.568Z,28.40
2017-07-01T05:02:25.672Z,28.40
2017-07-01T05:04:53.796Z,28.40
2017-07-01T05:07:30.966Z,28.40
2017-07-01T05:09:59.219Z,28.50
2017-07-01T05:12:28.088Z,28.50
2017-07-01T05:14:56.215Z,28.50
2017-07-01T05:17:25.287Z,28.50
2017-07-01T05:19:54.144Z,28.50
2017-07-01T05:22:22.276Z,28.50
2017-07-01T05:24:50.400Z,28.50
2017-07-01T05:27:27.841Z,28.50
2017-07-01T05:29:56.006Z,28.50
2017-07-01T05:32:24.104Z,28.60
2017-07-01T05:35:00.407Z,28.60
2017-07-01T05:37:30.911Z,28.60
2017-07-01T05:39:59.036Z,28.60
2017-07-01T05:42:32.236Z,28.60
2017-07-01T05:45:00.392Z,28.60
2017-07-01T05:47:28.544Z,28.60
2017-07-01T05:49:56.683Z,28.60
2017-07-01T05:52:24.912Z,28.60
2017-07-01T05:54:53.040Z,28.60
2017-07-01T05:57:21.164Z,28.60
2017-07-01T05:59:49.371Z,28.60
2017-07-01T06:02:17.540Z,28.60
2017-07-01T06:04:45.660Z,28.60
2017-07-01T06:07:14.361Z,28.60
2017-07-01T06:09:51.540Z,28.70
2017-07-01T06:12:26.727Z,28.70
2017-07-01T06:14:55.379Z,28.70
2017-07-01T06:17:24.344Z,28.70
2017-07-01T06:19:52.460Z,28.70
2017-07-01T06:22:25.711Z,28.70
2017-07-01T06:24:53.812Z,28.70
2017-07-01T06:27:21.968Z,28.70
2017-07-01T06:29:50.304Z,28.80
2017-07-01T06:32:18.500Z,28.80
2017-07-01T06:34:55.604Z,28.80
2017-07-01T06:37:32.092Z,28.90
2017-07-01T06:40:00.359Z,28.90
2017-07-01T06:42:33.048Z,29.00
2017-07-01T06:45:01.228Z,29.00
2017-07-01T06:47:29.440Z,29.00
2017-07-01T06:49:58.464Z,29.10
2017-07-01T06:52:26.636Z,29.00
2017-07-01T06:54:54.803Z,29.10
2017-07-01T06:57:32.337Z,29.10
2017-07-01T07:00:00.549Z,29.10
2017-07-01T07:02:28.644Z,29.10
2017-07-01T07:04:56.820Z,29.20
2017-07-01T07:07:24.972Z,29.20
2017-07-01T07:09:53.102Z,29.20
2017-07-01T07:12:21.220Z,29.20
2017-07-01T07:14:49.381Z,29.20
2017-07-01T07:17:17.616Z,29.30
2017-07-01T07:19:45.764Z,29.30
2017-07-01T07:22:14.024Z,29.30
2017-07-01T07:24:42.132Z,29.40
2017-07-01T07:27:10.283Z,29.40
2017-07-01T07:32:16.151Z,29.40
2017-07-01T07:34:44.263Z,29.40
2017-07-01T07:37:13.040Z,29.40
2017-07-01T07:39:41.147Z,29.50
2017-07-01T07:42:09.256Z,29.50
2017-07-01T07:44:37.407Z,29.50
2017-07-01T07:47:05.503Z,29.60
2017-07-01T07:49:33.607Z,29.60
2017-07-01T07:52:01.700Z,29.60
2017-07-01T07:54:29.819Z,29.70
2017-07-01T07:56:57.951Z,29.70
2017-07-01T07:59:26.636Z,29.70
2017-07-01T08:03:19.292Z,29.70
2017-07-01T08:05:47.412Z,29.70
2017-07-01T08:08:15.541Z,29.70
2017-07-01T08:10:43.680Z,29.70
2017-07-01T08:13:11.836Z,29.70
2017-07-01T08:15:39.958Z,29.70
2017-07-01T08:18:08.074Z,29.80
2017-07-01T08:20:36.199Z,29.80
2017-07-01T08:23:04.291Z,29.80
2017-07-01T08:25:32.419Z,29.90
2017-07-01T08:28:00.559Z,29.90
2017-07-01T08:30:28.679Z,29.90
2017-07-01T08:32:56.792Z,30.00
2017-07-01T08:35:24.916Z,30.00
2017-07-01T08:37:53.127Z,30.00
2017-07-01T08:40:21.229Z,30.00
2017-07-01T08:42:49.345Z,30.00
2017-07-01T08:45:17.468Z,30.10
2017-07-01T08:47:45.580Z,30.10
2017-07-01T08:50:13.679Z,30.10
2017-07-01T08:52:41.792Z,30.10
2017-07-01T08:55:09.884Z,30.20
2017-07-01T08:57:37.987Z,30.20
2017-07-01T09:00:06.128Z,30.30
2017-07-01T09:02:34.263Z,30.30
2017-07-01T09:05:02.432Z,30.30
2017-07-01T09:07:30.551Z,30.40
2017-07-01T09:09:58.660Z,30.40
2017-07-01T09:12:26.774Z,30.40
2017-07-01T09:14:54.895Z,30.40
2017-07-01T09:17:23.000Z,30.50
2017-07-01T09:19:51.119Z,30.50
2017-07-01T09:22:19.298Z,30.50
2017-07-01T09:24:47.420Z,30.60
2017-07-01T09:27:15.534Z,30.60
2017-07-01T09:29:43.644Z,30.60
2017-07-01T09:32:11.744Z,30.60
2017-07-01T09:34:39.859Z,30.70
2017-07-01T09:37:07.964Z,30.70
2017-07-01T09:39:36.078Z,30.70
2017-07-01T09:42:04.199Z,30.80
2017-07-01T09:44:32.304Z,30.80
2017-07-01T09:47:00.416Z,30.80
2017-07-01T09:49:28.544Z,30.90
2017-07-01T09:51:56.655Z,30.90
2017-07-01T09:54:24.755Z,30.90
2017-07-01T09:56:52.883Z,30.90
2017-07-01T09:59:20.989Z,31.00
2017-07-01T10:01:49.799Z,31.00
2017-07-01T10:04:17.916Z,31.00
2017-07-01T10:06:46.047Z,31.10
2017-07-01T10:09:14.151Z,31.10
2017-07-01T10:11:42.277Z,31.10
2017-07-01T10:14:10.396Z,31.10
2017-07-01T10:16:38.500Z,31.10
2017-07-01T10:19:06.724Z,31.20
2017-07-01T10:21:34.852Z,31.30
2017-07-01T10:24:07.904Z,31.30
2017-07-01T10:26:36.496Z,31.30
2017-07-01T10:29:04.602Z,31.40
2017-07-01T10:31:32.712Z,31.50
2017-07-01T10:34:00.872Z,31.50
2017-07-01T10:36:29.016Z,31.60
2017-07-01T10:38:57.376Z,31.70
2017-07-01T10:41:25.495Z,31.80
2017-07-01T10:43:53.679Z,31.90
2017-07-01T10:46:22.204Z,32.00
2017-07-01T10:48:50.300Z,32.00
2017-07-01T10:51:18.596Z,32.10
2017-07-01T10:53:46.712Z,32.10
2017-07-01T10:56:14.820Z,32.10
2017-07-01T10:58:42.935Z,32.20
2017-07-01T11:01:11.044Z,32.20
2017-07-01T11:03:39.166Z,32.20
2017-07-01T11:06:07.272Z,32.20
2017-07-01T11:08:35.380Z,32.30
2017-07-01T11:11:03.492Z,32.30
2017-07-01T11:13:31.592Z,32.40
2017-07-01T11:15:59.716Z,32.30
2017-07-01T11:18:27.824Z,32.40
2017-07-01T11:20:56.068Z,32.50
2017-07-01T11:23:24.182Z,32.60
2017-07-01T11:25:52.295Z,32.60
2017-07-01T11:28:20.419Z,32.60
2017-07-01T11:30:48.543Z,32.60
2017-07-01T11:33:16.650Z,32.60
2017-07-01T11:35:44.772Z,32.50
2017-07-01T11:38:12.880Z,32.60
2017-07-01T11:43:14.119Z,32.80
2017-07-01T11:45:42.499Z,32.90
2017-07-01T11:48:10.600Z,32.90
2017-07-01T11:50:38.712Z,33.00
2017-07-01T11:53:06.807Z,33.00
2017-07-01T11:55:34.916Z,33.10
2017-07-01T11:58:03.012Z,33.20
2017-07-01T12:00:31.116Z,33.30
2017-07-01T12:02:59.237Z,33.40
2017-07-01T12:05:27.353Z,33.50
2017-07-01T12:07:55.464Z,33.60
2017-07-01T12:10:23.864Z,33.70
2017-07-01T12:12:51.976Z,33.80
2017-07-01T12:15:20.067Z,33.90
2017-07-01T12:17:48.173Z,33.90
2017-07-01T12:20:16.279Z,33.80
2017-07-01T12:22:44.387Z,33.90
2017-07-01T12:25:12.490Z,34.00
2017-07-01T12:27:40.616Z,34.10
2017-07-01T12:30:08.743Z,34.20
2017-07-01T12:32:36.848Z,34.20
2017-07-01T12:35:04.943Z,34.30
2017-07-01T12:37:33.059Z,34.40
2017-07-01T12:40:01.172Z,34.50
2017-07-01T12:42:29.368Z,34.50
2017-07-01T12:44:57.495Z,34.60
2017-07-01T12:47:25.619Z,34.60
2017-07-01T12:49:53.728Z,34.70
2017-07-01T12:52:21.904Z,34.70
2017-07-01T12:54:50.113Z,34.80
2017-07-01T12:57:18.220Z,34.80
2017-07-01T12:59:46.340Z,34.90
2017-07-01T13:02:14.476Z,34.90
2017-07-01T13:04:42.603Z,35.00
2017-07-01T13:07:10.712Z,35.00
2017-07-01T13:09:38.805Z,35.10
2017-07-01T13:12:06.980Z,35.10
2017-07-01T13:14:35.091Z,35.10
2017-07-01T13:17:03.211Z,35.10
2017-07-01T13:19:31.328Z,35.20
2017-07-01T13:21:59.427Z,35.20
2017-07-01T13:24:27.549Z,35.20
2017-07-01T13:26:55.684Z,35.30
2017-07-01T13:29:23.812Z,35.30
2017-07-01T13:31:51.916Z,35.30
2017-07-01T13:34:20.016Z,35.30
2017-07-01T13:36:48.155Z,35.40
2017-07-01T13:39:16.253Z,35.40
2017-07-01T13:41:44.420Z,35.40
2017-07-01T13:44:12.531Z,35.40
2017-07-01T13:46:40.693Z,35.40
2017-07-01T13:49:08.785Z,35.40
2017-07-01T13:51:36.975Z,35.40
2017-07-01T13:54:05.083Z,35.40
2017-07-01T13:56:33.187Z,35.50
2017-07-01T13:59:01.300Z,35.50
2017-07-01T14:01:29.404Z,35.40
2017-07-01T14:03:57.504Z,35.40
2017-07-01T14:06:25.596Z,35.40
2017-07-01T14:08:53.750Z,35.50
2017-07-01T14:11:21.871Z,35.50
2017-07-01T14:13:50.027Z,35.60
2017-07-01T14:16:18.199Z,35.70
2017-07-01T14:18:46.396Z,35.70
2017-07-01T14:21:14.500Z,35.70
2017-07-01T14:23:42.600Z,35.60
2017-07-01T14:26:10.703Z,35.60
2017-07-01T14:28:38.837Z,35.60
2017-07-01T14:31:06.944Z,35.50
2017-07-01T14:33:35.060Z,35.40
2017-07-01T14:36:03.163Z,35.40
2017-07-01T14:38:31.382Z,35.40
2017-07-01T14:40:59.513Z,35.40
2017-07-01T14:43:27.640Z,35.40
2017-07-01T14:45:55.744Z,35.40
2017-07-01T14:48:23.861Z,35.30
2017-07-01T14:50:52.352Z,35.30
2017-07-01T14:53:20.448Z,35.20
2017-07-01T14:55:49.650Z,35.10
2017-07-01T14:58:18.268Z,35.10
2017-07-01T15:00:46.348Z,35.10
2017-07-01T15:03:14.465Z,35.10
2017-07-01T15:05:42.572Z,35.00
2017-07-01T15:08:10.696Z,35.00
2017-07-01T15:10:38.799Z,35.00
2017-07-01T15:13:06.899Z,34.90
2017-07-01T15:15:35.013Z,34.90
2017-07-01T15:18:03.136Z,34.90
2017-07-01T15:20:31.236Z,34.90
2017-07-01T15:22:59.351Z,34.90
2017-07-01T15:25:27.455Z,35.00
2017-07-01T15:27:55.576Z,35.10
2017-07-01T15:30:23.676Z,35.10
2017-07-01T15:32:51.904Z,35.00
2017-07-01T15:35:20.029Z,35.00
2017-07-01T15:37:48.139Z,35.00
2017-07-01T15:40:16.264Z,35.00
2017-07-01T15:42:44.372Z,34.90
2017-07-01T15:45:12.499Z,34.80
2017-07-01T15:47:40.660Z,34.80
2017-07-01T15:50:08.767Z,34.70
2017-07-01T15:52:36.887Z,34.70
2017-07-01T15:55:09.964Z,34.70
2017-07-01T15:57:38.388Z,34.60
2017-07-01T16:00:06.501Z,34.50
2017-07-01T16:02:34.608Z,34.50
2017-07-01T16:05:02.741Z,34.40
2017-07-01T16:07:30.849Z,34.40
2017-07-01T16:09:58.978Z,34.40
2017-07-01T16:12:27.172Z,34.30
2017-07-01T16:14:55.308Z,34.30
2017-07-01T16:20:00.879Z,34.20
2017-07-01T16:22:29.247Z,34.20
2017-07-01T16:24:57.383Z,34.10
2017-07-01T16:27:25.487Z,34.10
2017-07-01T16:29:53.701Z,34.10
2017-07-01T16:32:21.813Z,34.00
2017-07-01T16:34:49.927Z,34.00
2017-07-01T16:37:18.059Z,34.00
2017-07-01T16:39:46.188Z,33.90
2017-07-01T16:42:14.288Z,33.90
2017-07-01T16:44:42.408Z,33.80
2017-07-01T16:47:10.572Z,33.80
2017-07-01T16:49:38.699Z,33.80
2017-07-01T16:52:07.178Z,33.70
2017-07-01T16:54:35.300Z,33.70
2017-07-01T16:57:03.415Z,33.60
2017-07-01T16:59:31.526Z,33.60
2017-07-01T17:01:59.655Z,33.50
2017-07-01T17:04:27.764Z,33.50
2017-07-01T17:06:55.884Z,33.50
2017-07-01T17:09:23.992Z,33.50
2017-07-01T17:11:52.091Z,33.50
2017-07-01T17:14:20.205Z,33.40
2017-07-01T17:16:48.315Z,33.40
2017-07-01T17:19:16.403Z,33.40
2017-07-01T17:21:44.584Z,33.30
2017-07-01T17:24:12.688Z,33.30
2017-07-01T17:26:40.893Z,33.20
2017-07-01T17:29:09.007Z,33.20
2017-07-01T17:31:37.116Z,33.20
2017-07-01T17:34:05.220Z,33.10
2017-07-01T17:36:38.192Z,33.10
2017-07-01T17:39:06.300Z,33.10
2017-07-01T17:41:34.676Z,33.00
2017-07-01T17:44:02.799Z,33.00
2017-07-01T17:46:30.935Z,33.00
2017-07-01T17:48:59.051Z,32.90
2017-07-01T17:51:27.266Z,32.90
2017-07-01T17:53:55.374Z,32.90
2017-07-01T17:56:23.571Z,32.80
2017-07-01T17:58:51.675Z,32.80
2017-07-01T18:01:19.783Z,32.80
2017-07-01T18:03:47.916Z,32.80
2017-07-01T18:06:16.023Z,32.70
2017-07-01T18:08:44.127Z,32.70
2017-07-01T18:11:12.244Z,32.70
2017-07-01T18:13:40.367Z,32.60
2017-07-01T18:16:08.492Z,32.60
2017-07-01T18:18:36.600Z,32.60
2017-07-01T18:21:04.739Z,32.60
2017-07-01T18:23:32.848Z,32.50
2017-07-01T18:26:00.952Z,32.50
2017-07-01T18:28:29.068Z,32.40
2017-07-01T18:31:02.435Z,32.40
2017-07-01T18:33:31.140Z,32.40
2017-07-01T18:35:59.260Z,32.40
2017-07-01T18:38:27.380Z,32.30
2017-07-01T18:40:55.491Z,32.30
2017-07-01T18:43:24.248Z,32.30
2017-07-01T18:45:52.353Z,32.20
2017-07-01T18:48:20.464Z,32.10
2017-07-01T18:50:48.685Z,32.10
2017-07-01T18:53:16.783Z,32.10
2017-07-01T18:55:44.899Z,32.10
2017-07-01T18:58:13.185Z,32.00
2017-07-01T19:00:41.264Z,32.00
2017-07-01T19:03:09.380Z,32.00
2017-07-01T19:05:37.465Z,31.90
2017-07-01T19:08:05.595Z,31.90
2017-07-01T19:10:33.716Z,31.90
2017-07-01T19:13:01.812Z,31.80
2017-07-01T19:15:29.923Z,31.80
2017-07-01T19:17:58.048Z,31.80
2017-07-01T19:20:26.757Z,31.70
2017-07-01T19:22:54.883Z,31.70
2017-07-01T19:25:23.036Z,31.70
2017-07-01T19:27:51.180Z,31.70
2017-07-01T19:30:19.279Z,31.60
2017-07-01T19:32:47.471Z,31.60
2017-07-01T19:35:15.623Z,31.60
2017-07-01T19:37:43.717Z,31.60
2017-07-01T19:40:11.828Z,31.50
2017-07-01T19:42:40.096Z,31.50
2017-07-01T19:45:13.423Z,31.50
2017-07-01T19:47:41.536Z,31.40
2017-07-01T19:50:09.647Z,31.40
2017-07-01T19:52:37.864Z,31.40
2017-07-01T19:55:05.971Z,31.40
2017-07-01T19:57:34.071Z,31.40
2017-07-01T20:00:02.220Z,31.30
2017-07-01T20:02:30.345Z,31.30
2017-07-01T20:04:58.466Z,31.30
2017-07-01T20:07:26.590Z,31.30
2017-07-01T20:09:54.699Z,31.30
2017-07-01T20:12:22.812Z,31.30
2017-07-01T20:14:50.940Z,31.30
2017-07-01T20:17:19.028Z,31.30
2017-07-01T20:19:47.131Z,31.30
2017-07-01T20:22:15.243Z,31.30
2017-07-01T20:24:43.339Z,31.30
2017-07-01T20:27:11.443Z,31.20
2017-07-01T20:29:39.536Z,31.20
2017-07-01T20:32:07.644Z,31.20
2017-07-01T20:34:35.748Z,31.10
2017-07-01T20:37:03.856Z,31.10
2017-07-01T20:39:31.968Z,31.10
2017-07-01T20:42:00.083Z,31.10
2017-07-01T20:44:28.192Z,31.10
2017-07-01T20:46:56.308Z,31.10
2017-07-01T20:49:24.741Z,31.00
2017-07-01T20:51:52.867Z,31.00
2017-07-01T20:54:20.983Z,31.00
2017-07-01T20:56:49.072Z,30.90
2017-07-01T20:59:17.196Z,30.90
2017-07-01T21:01:45.288Z,30.90
2017-07-01T21:04:13.387Z,30.90
2017-07-01T21:06:41.503Z,30.90
2017-07-01T21:09:09.630Z,30.90
2017-07-01T21:11:37.725Z,30.80
2017-07-01T21:14:05.895Z,30.80
2017-07-01T21:16:33.991Z,30.80
2017-07-01T21:19:02.124Z,30.70
2017-07-01T21:21:30.245Z,30.70
2017-07-01T21:23:58.364Z,30.70
2017-07-01T21:26:26.472Z,30.70
2017-07-01T21:28:54.580Z,30.70
2017-07-01T21:31:22.710Z,30.70
2017-07-01T21:33:50.815Z,30.70
2017-07-01T21:36:18.943Z,30.70
2017-07-01T21:38:47.068Z,30.60
2017-07-01T21:41:15.180Z,30.60
2017-07-01T21:43:43.303Z,30.60
2017-07-01T21:46:11.784Z,30.60
2017-07-01T21:48:39.883Z,30.60
2017-07-01T21:51:08.040Z,30.50
2017-07-01T21:53:36.150Z,30.60
2017-07-01T21:56:04.279Z,30.50
2017-07-01T21:58:32.417Z,30.50
2017-07-01T22:01:00.539Z,30.50
2017-07-01T22:03:28.636Z,30.50
2017-07-01T22:05:56.748Z,30.50
2017-07-01T22:08:24.843Z,30.50
2017-07-01T22:10:52.952Z,30.50
2017-07-01T22:13:21.126Z,30.40
2017-07-01T22:15:49.259Z,30.40
2017-07-01T22:18:17.428Z,30.40
2017-07-01T22:20:45.630Z,30.40
2017-07-01T22:23:14.665Z,30.40
2017-07-01T22:25:42.793Z,30.40
2017-07-01T22:28:10.896Z,30.40
2017-07-01T22:30:38.987Z,30.40
2017-07-01T22:33:07.095Z,30.40
2017-07-01T22:35:35.292Z,30.30
2017-07-01T22:38:03.416Z,30.30
2017-07-01T22:40:32.091Z,30.30
2017-07-01T22:45:37.631Z,30.30
2017-07-01T22:48:06.027Z,30.30
2017-07-01T22:50:34.144Z,30.20
2017-07-01T22:53:02.248Z,30.20
2017-07-01T22:55:30.384Z,30.20
2017-07-01T22:57:58.593Z,30.20
2017-07-01T23:00:26.700Z,30.20
2017-07-01T23:02:54.887Z,30.20
2017-07-01T23:05:22.996Z,30.20
2017-07-01T23:07:51.115Z,30.20
2017-07-01T23:10:19.232Z,30.20
2017-07-01T23:12:47.363Z,30.10
2017-07-01T23:15:15.468Z,30.20
2017-07-01T23:17:43.564Z,30.10
2017-07-01T23:20:11.692Z,30.10
2017-07-01T23:22:39.803Z,30.10
2017-07-01T23:25:07.899Z,30.10
2017-07-01T23:27:36.013Z,30.10
2017-07-01T23:30:04.120Z,30.10
2017-07-01T23:32:32.316Z,30.10
2017-07-01T23:35:00.437Z,30.10
2017-07-01T23:37:28.543Z,30.10
2017-07-01T23:39:56.660Z,30.10
2017-07-01T23:42:24.789Z,30.00
2017-07-01T23:44:52.885Z,30.00
2017-07-01T23:47:20.992Z,30.00
2017-07-01T23:49:49.102Z,30.00
2017-07-01T23:52:17.204Z,30.00
2017-07-01T23:54:45.319Z,30.00
2017-07-01T23:57:13.451Z,30.00
2017-07-01T23:59:41.563Z,30.00
